Ship Status Report: callsign BAREU11

sailwx.info

Track history (hours):
 
Tides and Currents Weather Stations Pressure Air Temp Water Temp Dewpoint Dewpoint Depression Visibility Wind Speed Wind Dir Waves Ship Positions

Callsign BAREU11 (name unknown)

Last reported at 2014-Dec-19 11:00 UTC. Time now 2014-Dec-19 11:57 UTC.
Position N 49°42' W 004°00'.

Barometer 1020.6 mb

Date/timePositionNaut miles runAvg speedWind from/ knotsBaromVisibWave heightAir tempDewpointWater temp
2014-Dec-19 11:00N 49°42' W 004°00'2019.6 1020.6
2014-Dec-19 10:00N 49°54' W 003°36'2020.2 1018.6
2014-Dec-19 09:00N 50°00' W 003°06'1716.5 1017.0
2014-Dec-19 08:00N 50°06' W 002°42'1919.2 1015.1
2014-Dec-19 07:00N 50°06' W 002°12'1716.5 1013.1
2014-Dec-19 06:00N 50°12' W 001°48'2813.8 1011.6
2014-Dec-19 04:00N 50°18' W 001°06'1616.4 1011.4
2014-Dec-19 03:00N 50°24' W 000°42'2020.0 1011.7
2014-Dec-19 02:00N 50°30' W 000°12'2020.0 1012.0
2014-Dec-19 01:00N 50°36' E 000°18'4816.0 1012.4
2014-Dec-18 22:00N 51°00' E 001°24'1616.5 1012.7
2014-Dec-18 21:00N 51°12' E 001°42'1616.5 1011.1
2014-Dec-18 20:00N 51°24' E 002°00'1515.0 1010.5
2014-Dec-18 19:00N 51°24' E 002°24'1111.2 1010.0
2014-Dec-18 18:00N 51°24' E 002°42'1111.2 1011.3
2014-Dec-18 17:00N 51°24' E 003°00'1918.7 1010.6
2014-Dec-18 16:00N 51°24' E 003°30'7 7.5 1009.2
2014-Dec-18 15:00N 51°24' E 003°42'2311.6 1010.5
2014-Dec-18 13:00N 51°18' E 004°18'0 0.0 1011.0
2014-Dec-17 23:00N 51°18' E 004°18'0 0.0 1009.8
2014-Dec-17 08:00N 51°18' E 004°18'7 7.1 1003.1
2014-Dec-17 07:00N 51°24' E 004°12'7 7.5 1003.3
2014-Dec-17 06:00N 51°24' E 004°00'1111.2 1004.1
2014-Dec-17 05:00N 51°24' E 003°42'7 7.5 1005.2
2014-Dec-17 04:00N 51°24' E 003°30'1515.0 1007.0
2014-Dec-17 03:00N 51°24' E 003°06'1515.0 1007.9
2014-Dec-17 02:00N 51°24' E 002°42'54 2.1 1009.3
2014-Dec-16 00:00N 51°36' E 001°18'2019.6 1012.8
2014-Dec-15 23:00N 51°30' E 000°48'11 0.7 1013.5
2014-Dec-15 08:00N 51°30' E 000°30'0 0.0 1012.1
2014-Dec-15 06:00N 51°30' E 000°30'1111.2 1011.4
2014-Dec-15 05:00N 51°30' E 000°48'1616.1 1009.9
2014-Dec-15 04:00N 51°36' E 001°12'1616.4 1008.7
2014-Dec-15 03:00N 51°48' E 001°30'10 9.5 1007.4
2014-Dec-15 02:00N 51°54' E 001°42'10 9.5 1007.5
2014-Dec-15 01:00N 51°48' E 001°54'1312.6 1006.5
2014-Dec-15 00:00N 51°54' E 002°12'1616.3 1006.0
2014-Dec-14 23:00N 52°06' E 002°30'1616.3 1006.4
2014-Dec-14 22:00N 52°18' E 002°48'1312.5 1006.8
2014-Dec-14 21:00N 52°24' E 003°06'1616.3 1007.2
2014-Dec-14 20:00N 52°36' E 003°24'9 9.4 1006.9
2014-Dec-14 19:00N 52°42' E 003°36'1616.2 1006.9
2014-Dec-14 18:00N 52°54' E 003°54'1616.2 1007.3
2014-Dec-14 17:00N 53°06' E 004°12'1616.1 1007.6
2014-Dec-14 16:00N 53°18' E 004°30'1414.0 1008.1
2014-Dec-14 15:00N 53°30' E 004°42'1515.5 1006.9
2014-Dec-14 14:00N 53°36' E 005°06'1212.2 1007.4
2014-Dec-14 13:00N 53°42' E 005°24'1414.2 1008.5
2014-Dec-14 12:00N 53°42' E 005°48'1515.4 1009.0
2014-Dec-14 11:00N 53°48' E 006°12'1515.4 1010.2
2014-Dec-14 10:00N 53°54' E 006°36'1414.1 1010.8
2014-Dec-14 09:00N 53°54' E 007°00'1918.6 1011.2
2014-Dec-14 08:00N 54°00' E 007°30'1414.1 1011.2
2014-Dec-14 07:00N 54°00' E 007°54'1414.1 1011.2
2014-Dec-14 06:00N 54°00' E 008°18'1515.3 1011.7
2014-Dec-14 05:00N 53°54' E 008°42'1110.6 1012.7
2014-Dec-14 04:00N 53°54' E 009°00'1110.6 1012.4
2014-Dec-14 03:00N 53°54' E 009°18'1413.9 1013.0
2014-Dec-14 02:00N 53°42' E 009°30'1212.2 1013.4
2014-Dec-14 01:00N 53°36' E 009°48'7 0.3 1013.2
2014-Dec-12 23:00N 53°30' E 009°54'0 0.0 997.6
2014-Dec-12 21:00N 53°30' E 009°54'0 0.0 995.1
2014-Dec-12 15:00N 53°30' E 009°54'7 7.0 989.6
2014-Dec-12 14:00N 53°36' E 009°48'2110.7 989.1
2014-Dec-12 12:00N 53°48' E 009°18'1212.2 986.9
2014-Dec-12 11:00N 53°54' E 009°00'2211.0 987.4
2014-Dec-12 09:00N 54°00' E 008°24'1414.1 989.3
2014-Dec-12 08:00N 54°00' E 008°00'1515.3 990.5
2014-Dec-12 07:00N 53°54' E 007°36'1414.1 991.2
2014-Dec-12 06:00N 53°54' E 007°12'1212.2 992.4
2014-Dec-12 05:00N 53°48' E 006°54'1414.2 993.7
2014-Dec-12 04:00N 53°48' E 006°30'1515.4 995.1
2014-Dec-12 03:00N 53°42' E 006°06'1515.4 996.2
2014-Dec-12 02:00N 53°36' E 005°42'1515.5 997.5
2014-Dec-12 01:00N 53°30' E 005°18'1414.3 998.4
2014-Dec-12 00:00N 53°30' E 004°54'1616.1 999.3
2014-Dec-11 23:00N 53°18' E 004°36'3316.6 1000.5
2014-Dec-11 21:00N 52°48' E 004°12'3216.0 1003.3
2014-Dec-11 19:00N 52°18' E 003°54'6 6.0 1005.5
2014-Dec-11 18:00N 52°12' E 003°54'7 7.0 1006.1
2014-Dec-11 17:00N 52°06' E 004°00'7 7.0 1005.4
2014-Dec-11 16:00N 52°00' E 004°06'1312.6 1006.2
2014-Dec-11 15:00N 51°54' E 004°24'0 0.0 1006.7
2014-Dec-11 09:00N 51°54' E 004°24'0 0.0 1006.1
2014-Dec-11 03:00N 51°54' E 004°24'0 0.0 1009.3
2014-Dec-11 02:00N 51°54' E 004°24'0 0.0 1009.8
2014-Dec-11 01:00N 51°54' E 004°24'0 0.0 1010.7
2014-Dec-11 00:00N 51°54' E 004°24'13 1.6 1011.8
2014-Dec-10 16:00N 52°00' E 004°06'7 7.4 1014.0
2014-Dec-10 15:00N 52°00' E 003°54'4 3.7 1014.1
2014-Dec-10 14:00N 52°00' E 003°48'7 7.4 1014.6
2014-Dec-10 13:00N 52°00' E 003°36'7 2.3 1014.9
2014-Dec-10 10:00N 51°54' E 003°30'1111.1 1015.1
2014-Dec-10 09:00N 51°54' E 003°12'1312.6 1014.9
2014-Dec-10 08:00N 51°48' E 002°54'1312.7 1014.5
2014-Dec-10 07:00N 51°42' E 002°36'10 9.6 1013.2
2014-Dec-10 06:00N 51°36' E 002°24'1616.4 1012.8
2014-Dec-10 05:00N 51°24' E 002°06'10 9.6 1011.9
2014-Dec-10 04:00N 51°18' E 001°54'1414.2 1012.1
2014-Dec-10 03:00N 51°06' E 001°42'10 9.6 1013.3
2014-Dec-10 02:00N 51°00' E 001°30'2019.5 1014.6
2014-Dec-10 01:00N 50°42' E 001°18'1716.6 1016.8
2014-Dec-10 00:00N 50°30' E 001°00'4020.0 1017.7
2014-Dec-09 22:00N 50°18' E 000°00'2020.1 1020.6
2014-Dec-09 21:00N 50°12' W 000°30'2423.8 1021.6
2014-Dec-09 20:00N 50°06' W 001°06'1716.5 1022.5
2014-Dec-09 19:00N 50°00' W 001°30'1919.3 1023.1
2014-Dec-09 18:00N 50°00' W 002°00'1716.6 1023.8
2014-Dec-09 17:00N 49°54' W 002°24'1716.6 1024.2
2014-Dec-09 16:00N 49°48' W 002°48'3215.8 1025.9
2014-Dec-09 14:00N 49°42' W 003°36'2020.3 1027.8
2014-Dec-09 13:00N 49°36' W 004°06'1716.7 1028.2
2014-Dec-09 12:00N 49°30' W 004°30'1716.7 1029.6
2014-Dec-09 11:00N 49°24' W 004°54'   1029.9
Track history (hours):
 
Tides and Currents Weather Stations Pressure Air Temp Water Temp Dewpoint Dewpoint Depression Visibility Wind Speed Wind Dir Waves Ship Positions

Callsign BAREU11 (name unknown)

Last reported at 2014-Dec-19 11:00 UTC. Time now 2014-Dec-19 11:57 UTC.
Position N 49°42' W 004°00'.

Barometer 1020.6 mb

Date/timePositionNaut miles runAvg speedWind from/ knotsBaromVisibWave heightAir tempDewpointWater temp
2014-Dec-19 11:00N 49°42' W 004°00'2019.6 1020.6
2014-Dec-19 10:00N 49°54' W 003°36'2020.2 1018.6
2014-Dec-19 09:00N 50°00' W 003°06'1716.5 1017.0
2014-Dec-19 08:00N 50°06' W 002°42'1919.2 1015.1
2014-Dec-19 07:00N 50°06' W 002°12'1716.5 1013.1
2014-Dec-19 06:00N 50°12' W 001°48'2813.8 1011.6
2014-Dec-19 04:00N 50°18' W 001°06'1616.4 1011.4
2014-Dec-19 03:00N 50°24' W 000°42'2020.0 1011.7
2014-Dec-19 02:00N 50°30' W 000°12'2020.0 1012.0
2014-Dec-19 01:00N 50°36' E 000°18'4816.0 1012.4
2014-Dec-18 22:00N 51°00' E 001°24'1616.5 1012.7
2014-Dec-18 21:00N 51°12' E 001°42'1616.5 1011.1
2014-Dec-18 20:00N 51°24' E 002°00'1515.0 1010.5
2014-Dec-18 19:00N 51°24' E 002°24'1111.2 1010.0
2014-Dec-18 18:00N 51°24' E 002°42'1111.2 1011.3
2014-Dec-18 17:00N 51°24' E 003°00'1918.7 1010.6
2014-Dec-18 16:00N 51°24' E 003°30'7 7.5 1009.2
2014-Dec-18 15:00N 51°24' E 003°42'2311.6 1010.5
2014-Dec-18 13:00N 51°18' E 004°18'0 0.0 1011.0
2014-Dec-17 23:00N 51°18' E 004°18'0 0.0 1009.8
2014-Dec-17 08:00N 51°18' E 004°18'7 7.1 1003.1
2014-Dec-17 07:00N 51°24' E 004°12'7 7.5 1003.3
2014-Dec-17 06:00N 51°24' E 004°00'1111.2 1004.1
2014-Dec-17 05:00N 51°24' E 003°42'7 7.5 1005.2
2014-Dec-17 04:00N 51°24' E 003°30'1515.0 1007.0
2014-Dec-17 03:00N 51°24' E 003°06'1515.0 1007.9
2014-Dec-17 02:00N 51°24' E 002°42'54 2.1 1009.3
2014-Dec-16 00:00N 51°36' E 001°18'2019.6 1012.8
2014-Dec-15 23:00N 51°30' E 000°48'11 0.7 1013.5
2014-Dec-15 08:00N 51°30' E 000°30'0 0.0 1012.1
2014-Dec-15 06:00N 51°30' E 000°30'1111.2 1011.4
2014-Dec-15 05:00N 51°30' E 000°48'1616.1 1009.9
2014-Dec-15 04:00N 51°36' E 001°12'1616.4 1008.7
2014-Dec-15 03:00N 51°48' E 001°30'10 9.5 1007.4
2014-Dec-15 02:00N 51°54' E 001°42'10 9.5 1007.5
2014-Dec-15 01:00N 51°48' E 001°54'1312.6 1006.5
2014-Dec-15 00:00N 51°54' E 002°12'1616.3 1006.0
2014-Dec-14 23:00N 52°06' E 002°30'1616.3 1006.4
2014-Dec-14 22:00N 52°18' E 002°48'1312.5 1006.8
2014-Dec-14 21:00N 52°24' E 003°06'1616.3 1007.2
2014-Dec-14 20:00N 52°36' E 003°24'9 9.4 1006.9
2014-Dec-14 19:00N 52°42' E 003°36'1616.2 1006.9
2014-Dec-14 18:00N 52°54' E 003°54'1616.2 1007.3
2014-Dec-14 17:00N 53°06' E 004°12'1616.1 1007.6
2014-Dec-14 16:00N 53°18' E 004°30'1414.0 1008.1
2014-Dec-14 15:00N 53°30' E 004°42'1515.5 1006.9
2014-Dec-14 14:00N 53°36' E 005°06'1212.2 1007.4
2014-Dec-14 13:00N 53°42' E 005°24'1414.2 1008.5
2014-Dec-14 12:00N 53°42' E 005°48'1515.4 1009.0
2014-Dec-14 11:00N 53°48' E 006°12'1515.4 1010.2
2014-Dec-14 10:00N 53°54' E 006°36'1414.1 1010.8
2014-Dec-14 09:00N 53°54' E 007°00'1918.6 1011.2
2014-Dec-14 08:00N 54°00' E 007°30'1414.1 1011.2
2014-Dec-14 07:00N 54°00' E 007°54'1414.1 1011.2
2014-Dec-14 06:00N 54°00' E 008°18'1515.3 1011.7
2014-Dec-14 05:00N 53°54' E 008°42'1110.6 1012.7
2014-Dec-14 04:00N 53°54' E 009°00'1110.6 1012.4
2014-Dec-14 03:00N 53°54' E 009°18'1413.9 1013.0
2014-Dec-14 02:00N 53°42' E 009°30'1212.2 1013.4
2014-Dec-14 01:00N 53°36' E 009°48'7 0.3 1013.2
2014-Dec-12 23:00N 53°30' E 009°54'0 0.0 997.6
2014-Dec-12 21:00N 53°30' E 009°54'0 0.0 995.1
2014-Dec-12 15:00N 53°30' E 009°54'7 7.0 989.6
2014-Dec-12 14:00N 53°36' E 009°48'2110.7 989.1
2014-Dec-12 12:00N 53°48' E 009°18'1212.2 986.9
2014-Dec-12 11:00N 53°54' E 009°00'2211.0 987.4
2014-Dec-12 09:00N 54°00' E 008°24'1414.1 989.3
2014-Dec-12 08:00N 54°00' E 008°00'1515.3 990.5
2014-Dec-12 07:00N 53°54' E 007°36'1414.1 991.2
2014-Dec-12 06:00N 53°54' E 007°12'1212.2 992.4
2014-Dec-12 05:00N 53°48' E 006°54'1414.2 993.7
2014-Dec-12 04:00N 53°48' E 006°30'1515.4 995.1
2014-Dec-12 03:00N 53°42' E 006°06'1515.4 996.2
2014-Dec-12 02:00N 53°36' E 005°42'1515.5 997.5
2014-Dec-12 01:00N 53°30' E 005°18'1414.3 998.4
2014-Dec-12 00:00N 53°30' E 004°54'1616.1 999.3
2014-Dec-11 23:00N 53°18' E 004°36'3316.6 1000.5
2014-Dec-11 21:00N 52°48' E 004°12'3216.0 1003.3
2014-Dec-11 19:00N 52°18' E 003°54'6 6.0 1005.5
2014-Dec-11 18:00N 52°12' E 003°54'7 7.0 1006.1
2014-Dec-11 17:00N 52°06' E 004°00'7 7.0 1005.4
2014-Dec-11 16:00N 52°00' E 004°06'1312.6 1006.2
2014-Dec-11 15:00N 51°54' E 004°24'0 0.0 1006.7
2014-Dec-11 09:00N 51°54' E 004°24'0 0.0 1006.1
2014-Dec-11 03:00N 51°54' E 004°24'0 0.0 1009.3
2014-Dec-11 02:00N 51°54' E 004°24'0 0.0 1009.8
2014-Dec-11 01:00N 51°54' E 004°24'0 0.0 1010.7
2014-Dec-11 00:00N 51°54' E 004°24'13 1.6 1011.8
2014-Dec-10 16:00N 52°00' E 004°06'7 7.4 1014.0
2014-Dec-10 15:00N 52°00' E 003°54'4 3.7 1014.1
2014-Dec-10 14:00N 52°00' E 003°48'7 7.4 1014.6
2014-Dec-10 13:00N 52°00' E 003°36'7 2.3 1014.9
2014-Dec-10 10:00N 51°54' E 003°30'1111.1 1015.1
2014-Dec-10 09:00N 51°54' E 003°12'1312.6 1014.9
2014-Dec-10 08:00N 51°48' E 002°54'1312.7 1014.5
2014-Dec-10 07:00N 51°42' E 002°36'10 9.6 1013.2
2014-Dec-10 06:00N 51°36' E 002°24'1616.4 1012.8
2014-Dec-10 05:00N 51°24' E 002°06'10 9.6 1011.9
2014-Dec-10 04:00N 51°18' E 001°54'1414.2 1012.1
2014-Dec-10 03:00N 51°06' E 001°42'10 9.6 1013.3
2014-Dec-10 02:00N 51°00' E 001°30'2019.5 1014.6
2014-Dec-10 01:00N 50°42' E 001°18'1716.6 1016.8
2014-Dec-10 00:00N 50°30' E 001°00'4020.0 1017.7
2014-Dec-09 22:00N 50°18' E 000°00'2020.1 1020.6
2014-Dec-09 21:00N 50°12' W 000°30'2423.8 1021.6
2014-Dec-09 20:00N 50°06' W 001°06'1716.5 1022.5
2014-Dec-09 19:00N 50°00' W 001°30'1919.3 1023.1
2014-Dec-09 18:00N 50°00' W 002°00'1716.6 1023.8
2014-Dec-09 17:00N 49°54' W 002°24'1716.6 1024.2
2014-Dec-09 16:00N 49°48' W 002°48'3215.8 1025.9
2014-Dec-09 14:00N 49°42' W 003°36'2020.3 1027.8
2014-Dec-09 13:00N 49°36' W 004°06'1716.7 1028.2
2014-Dec-09 12:00N 49°30' W 004°30'1716.7 1029.6
2014-Dec-09 11:00N 49°24' W 004°54'   1029.9

Dump ship's entire track history